Time;durP1;ratioP1;P1;durP2;ratioP2;P2;SDS_P1;SDS_P2;PMS_P1;PMS_P2;Temp;Humidity;BMP_temperature;BMP_pressure;BME280_temperature;BME280_humidity;BME280_pressure;Samples;Min_cycle;Max_cycle;Signal;HPM_P1;HPM_P2
2023/02/28 00:00:42;;;;;;;3.90;3.60;;;17.80;57.50;;;;;;5064816;28;20040;-78
2023/02/28 00:03:08;;;;;;;3.80;3.50;;;17.80;57.70;;;;;;5068077;28;20053;-78
2023/02/28 00:05:34;;;;;;;4.00;3.50;;;17.70;57.80;;;;;;5068123;28;20128;-78
2023/02/28 00:07:59;;;;;;;3.83;3.50;;;17.70;57.50;;;;;;5068541;28;20140;-78
2023/02/28 00:10:27;;;;;;;3.60;3.38;;;17.70;57.60;;;;;;5068937;28;20429;-78
2023/02/28 00:12:53;;;;;;;3.55;3.25;;;17.70;57.60;;;;;;5064789;28;20044;-78
2023/02/28 00:15:19;;;;;;;3.50;3.20;;;17.70;57.60;;;;;;5068948;28;20041;-78
2023/02/28 00:17:45;;;;;;;3.63;3.33;;;17.70;57.50;;;;;;5068091;28;20097;-78
2023/02/28 00:20:11;;;;;;;3.40;3.20;;;17.70;57.60;;;;;;5067218;28;20091;-78
2023/02/28 00:22:38;;;;;;;3.03;2.83;;;17.60;57.70;;;;;;5067766;28;20040;-78
2023/02/28 00:25:04;;;;;;;3.35;3.10;;;17.60;57.60;;;;;;5067542;28;20048;-78
2023/02/28 00:27:30;;;;;;;3.30;3.00;;;17.60;57.60;;;;;;5067124;28;20323;-78
2023/02/28 00:29:56;;;;;;;3.00;2.80;;;17.60;57.50;;;;;;5064359;28;20525;-78
2023/02/28 00:32:21;;;;;;;3.40;3.10;;;17.60;57.50;;;;;;5066008;28;20095;-78
2023/02/28 00:34:47;;;;;;;3.10;2.80;;;17.70;57.40;;;;;;5066066;28;20043;-78
2023/02/28 00:37:13;;;;;;;2.85;2.65;;;17.60;57.50;;;;;;5067655;28;20574;-78
2023/02/28 00:39:39;;;;;;;3.08;2.88;;;17.60;57.90;;;;;;5066612;28;20572;-78
2023/02/28 00:42:04;;;;;;;3.45;3.25;;;17.60;57.50;;;;;;5066395;28;20041;-77
2023/02/28 00:44:30;;;;;;;3.40;3.15;;;17.60;57.60;;;;;;5065162;28;20170;-78
2023/02/28 00:46:56;;;;;;;3.28;3.05;;;17.50;57.50;;;;;;5065873;28;30181;-78
2023/02/28 00:49:22;;;;;;;2.88;2.67;;;17.60;57.50;;;;;;5066451;28;20128;-77
2023/02/28 00:51:48;;;;;;;2.65;2.45;;;17.60;57.60;;;;;;5063905;28;20055;-78
2023/02/28 00:54:14;;;;;;;3.00;2.80;;;17.50;57.50;;;;;;5066761;28;20493;-77
2023/02/28 00:56:40;;;;;;;2.80;2.60;;;17.50;57.50;;;;;;5065454;28;20118;-78
2023/02/28 00:59:06;;;;;;;3.20;2.90;;;17.50;57.60;;;;;;5067805;28;20517;-78
2023/02/28 01:01:31;;;;;;;2.40;2.30;;;17.50;58.10;;;;;;5064860;28;20108;-78
2023/02/28 01:03:57;;;;;;;2.95;2.75;;;17.50;57.60;;;;;;5063057;28;20512;-78
2023/02/28 01:06:23;;;;;;;2.40;2.30;;;17.50;57.50;;;;;;5066767;28;20521;-78
2023/02/28 01:08:49;;;;;;;2.75;2.55;;;17.60;57.50;;;;;;5067764;28;20029;-78
2023/02/28 01:11:15;;;;;;;2.53;2.33;;;17.50;57.50;;;;;;5067443;28;20052;-78
2023/02/28 01:13:41;;;;;;;2.47;2.28;;;17.50;57.40;;;;;;5068809;28;20033;-77
2023/02/28 01:16:07;;;;;;;2.95;2.72;;;17.50;57.40;;;;;;5062258;28;20033;-77
2023/02/28 01:18:33;;;;;;;2.55;2.35;;;17.50;57.50;;;;;;5066475;28;20404;-78
2023/02/28 01:21:02;;;;;;;2.83;2.63;;;17.50;57.30;;;;;;5064589;28;20045;-77
2023/02/28 01:23:28;;;;;;;2.97;2.70;;;17.60;57.50;;;;;;5064374;28;20131;-77
2023/02/28 01:25:53;;;;;;;2.90;2.70;;;17.50;57.30;;;;;;5066452;28;20565;-78
2023/02/28 01:28:19;;;;;;;2.38;2.17;;;17.50;57.40;;;;;;5067511;28;20062;-78
2023/02/28 01:30:49;;;;;;;2.42;2.30;;;17.40;57.60;;;;;;5064469;28;20044;-78
2023/02/28 01:33:14;;;;;;;2.60;2.40;;;17.40;57.30;;;;;;5062031;28;20040;-78
2023/02/28 01:35:40;;;;;;;2.58;2.38;;;17.50;57.50;;;;;;5063609;28;20033;-77
2023/02/28 01:38:06;;;;;;;2.35;2.15;;;17.40;57.40;;;;;;5063685;28;20044;-78
2023/02/28 01:40:31;;;;;;;3.13;1.98;;;17.40;57.40;;;;;;5063838;28;20119;-78
2023/02/28 01:42:57;;;;;;;2.00;1.90;;;17.40;57.40;;;;;;5061945;28;20025;-78
2023/02/28 01:45:27;;;;;;;2.55;2.35;;;17.40;57.50;;;;;;5064443;28;20068;-78
2023/02/28 01:47:56;;;;;;;2.35;2.25;;;17.40;57.50;;;;;;5063964;28;20119;-77
2023/02/28 01:50:24;;;;;;;2.20;2.10;;;17.40;57.40;;;;;;5048982;28;20055;-78
2023/02/28 01:52:49;;;;;;;2.50;2.30;;;17.40;57.30;;;;;;5063387;28;20515;-78
2023/02/28 01:55:16;;;;;;;2.60;2.40;;;17.40;57.30;;;;;;5048464;28;20041;-78
2023/02/28 01:57:45;;;;;;;2.20;2.10;;;17.40;57.50;;;;;;5061961;28;20032;-77
2023/02/28 02:00:16;;;;;;;2.40;2.20;;;17.40;57.70;;;;;;5066744;28;20375;-77
2023/02/28 02:02:42;;;;;;;2.45;2.25;;;17.40;57.50;;;;;;5063547;28;20600;-77
2023/02/28 02:05:16;;;;;;;2.55;2.35;;;17.40;57.40;;;;;;5065659;28;20029;-78
2023/02/28 02:07:43;;;;;;;2.17;2.08;;;17.40;57.40;;;;;;5062490;28;20047;-77
2023/02/28 02:10:17;;;;;;;2.33;2.08;;;17.30;57.50;;;;;;5062063;28;20130;-77
2023/02/28 02:12:57;;;;;;;2.30;2.10;;;17.40;57.50;;;;;;5060652;28;20413;-77
2023/02/28 02:15:42;;;;;;;2.35;2.15;;;17.40;57.40;;;;;;5066759;28;20383;-77
2023/02/28 02:18:16;;;;;;;;;;;17.40;57.20;;;;;;5063606;28;20114;-77
2023/02/28 02:20:51;;;;;;;1.95;1.85;;;17.30;57.30;;;;;;5064574;28;19917;-77
2023/02/28 02:23:26;;;;;;;2.20;2.10;;;17.30;57.40;;;;;;5064600;28;20083;-77
2023/02/28 02:26:28;;;;;;;2.45;2.25;;;17.40;57.30;;;;;;5064314;28;20570;-77
2023/02/28 02:29:02;;;;;;;2.05;1.95;;;17.30;57.40;;;;;;5065532;28;20068;-77
2023/02/28 02:31:30;;;;;;;;;;;17.30;57.10;;;;;;5064253;28;20076;-77
2023/02/28 02:34:01;;;;;;;1.73;1.63;;;17.30;57.40;;;;;;5066183;28;19917;-77
2023/02/28 02:36:31;;;;;;;1.58;1.48;;;17.30;57.20;;;;;;5066045;28;20044;-77
2023/02/28 02:39:26;;;;;;;1.73;1.63;;;17.30;57.20;;;;;;5066923;28;20040;-77
2023/02/28 02:41:53;;;;;;;1.50;1.40;;;17.30;57.10;;;;;;5063039;28;20041;-78
2023/02/28 02:44:24;;;;;;;1.95;1.85;;;17.20;57.60;;;;;;5063523;28;20166;-77
2023/02/28 02:46:51;;;;;;;1.90;1.80;;;17.20;57.40;;;;;;5065508;28;20234;-77
2023/02/28 02:49:23;;;;;;;2.03;1.92;;;17.20;57.30;;;;;;5064072;28;20512;-77
2023/02/28 02:51:49;;;;;;;2.08;1.88;;;17.20;57.30;;;;;;5059246;28;20051;-77
2023/02/28 02:54:19;;;;;;;1.70;1.60;;;17.20;57.60;;;;;;5046074;28;20036;-77
2023/02/28 02:56:46;;;;;;;1.60;1.50;;;17.20;57.50;;;;;;5059528;28;20037;-78
2023/02/28 02:59:13;;;;;;;1.40;1.30;;;17.20;58.00;;;;;;5048826;28;20045;-77
2023/02/28 03:01:38;;;;;;;2.13;2.03;;;17.20;57.20;;;;;;5049134;28;20044;-77
2023/02/28 03:10:52;;;;;;;1.70;1.60;;;17.20;57.40;;;;;;3843402;28;20136;-79
2023/02/28 03:13:39;;;;;;;1.65;1.55;;;17.20;57.70;;;;;;5054162;28;20430;-79
2023/02/28 03:16:11;;;;;;;1.63;1.52;;;17.20;57.50;;;;;;5050834;28;20119;-78
2023/02/28 03:18:58;;;;;;;1.40;1.30;;;17.20;57.30;;;;;;5073536;28;20095;-78
2023/02/28 03:21:42;;;;;;;1.40;1.30;;;17.20;57.40;;;;;;5065932;28;20125;-78
2023/02/28 03:24:52;;;;;;;1.70;1.60;;;17.10;58.00;;;;;;5078410;28;20082;-78
2023/02/28 03:27:44;;;;;;;1.40;1.30;;;17.10;57.30;;;;;;4965840;28;20081;-78
2023/02/28 03:30:15;;;;;;;1.35;1.27;;;17.10;57.40;;;;;;4952130;28;20038;-78
2023/02/28 03:33:04;;;;;;;1.63;1.52;;;17.10;57.30;;;;;;4955804;28;20042;-78
2023/02/28 03:35:44;;;;;;;1.35;1.25;;;17.10;57.40;;;;;;4930001;28;20097;-78
2023/02/28 03:38:20;;;;;;;1.60;1.50;;;17.10;57.30;;;;;;4973224;28;21090;-78
2023/02/28 03:40:51;;;;;;;1.40;1.30;;;17.10;57.50;;;;;;4972554;28;20041;-78
2023/02/28 03:43:20;;;;;;;1.27;1.27;;;17.10;57.50;;;;;;4972583;28;20117;-78
2023/02/28 03:45:45;;;;;;;1.35;1.25;;;17.10;57.30;;;;;;4974591;28;20038;-78
2023/02/28 03:48:16;;;;;;;1.35;1.25;;;17.10;57.40;;;;;;4970488;28;20230;-78
2023/02/28 03:50:45;;;;;;;1.70;1.60;;;17.10;57.50;;;;;;4972050;28;20126;-78
2023/02/28 03:53:16;;;;;;;1.60;1.50;;;17.10;57.50;;;;;;4956282;28;20057;-78
2023/02/28 03:55:47;;;;;;;1.10;1.10;;;17.10;57.50;;;;;;4970721;28;20026;-78
2023/02/28 03:58:18;;;;;;;1.33;1.23;;;17.10;57.40;;;;;;4950410;28;20034;-78
2023/02/28 04:00:52;;;;;;;1.40;1.30;;;17.10;57.40;;;;;;4993329;28;20083;-78
2023/02/28 04:03:18;;;;;;;1.58;1.48;;;17.10;57.30;;;;;;5050889;28;20019;-78
2023/02/28 04:05:51;;;;;;;1.13;1.13;;;17.10;57.50;;;;;;5052157;28;20397;-78
2023/02/28 04:08:17;;;;;;;1.52;1.42;;;17.00;57.50;;;;;;5061798;28;20027;-78
2023/02/28 04:10:43;;;;;;;1.20;1.20;;;17.00;57.60;;;;;;5075964;28;20423;-78
2023/02/28 04:13:09;;;;;;;1.20;1.15;;;17.00;57.30;;;;;;5067357;28;20108;-78
2023/02/28 04:15:34;;;;;;;1.30;1.20;;;17.00;57.50;;;;;;5081914;28;20417;-78
2023/02/28 04:18:00;;;;;;;1.48;1.38;;;17.00;57.40;;;;;;5086970;28;20051;-78
2023/02/28 04:20:25;;;;;;;1.10;1.10;;;17.00;57.30;;;;;;5090364;28;20044;-78
2023/02/28 04:22:51;;;;;;;1.65;1.55;;;17.00;57.30;;;;;;5090322;28;20051;-78
2023/02/28 04:25:16;;;;;;;1.40;1.30;;;17.00;57.40;;;;;;5088959;28;20049;-78
2023/02/28 04:27:44;;;;;;;1.38;1.30;;;17.00;57.30;;;;;;5092402;28;20146;-78
2023/02/28 04:30:10;;;;;;;1.10;1.10;;;17.00;57.70;;;;;;5095860;28;20086;-79
2023/02/28 04:32:36;;;;;;;1.10;1.10;;;17.00;57.40;;;;;;5093728;28;20051;-79
2023/02/28 04:35:02;;;;;;;1.15;1.10;;;17.00;57.40;;;;;;5096376;28;20035;-78
2023/02/28 04:37:28;;;;;;;1.40;1.30;;;17.00;57.50;;;;;;5096473;28;20036;-78
2023/02/28 04:39:54;;;;;;;1.30;1.20;;;17.00;57.30;;;;;;5090587;28;20146;-78
2023/02/28 04:42:20;;;;;;;1.20;1.10;;;16.90;57.30;;;;;;5099246;28;20138;-78
2023/02/28 04:44:46;;;;;;;1.35;1.25;;;17.00;57.60;;;;;;5094885;28;20123;-78
2023/02/28 04:47:12;;;;;;;1.15;1.15;;;17.00;57.30;;;;;;5091839;28;20079;-78
2023/02/28 04:49:38;;;;;;;1.27;1.17;;;17.00;57.50;;;;;;5075811;28;20493;-78
2023/02/28 04:52:03;;;;;;;1.20;1.10;;;17.00;57.50;;;;;;5096015;28;20405;-78
2023/02/28 04:54:29;;;;;;;1.30;1.20;;;17.00;57.40;;;;;;5089591;28;20051;-78
2023/02/28 04:56:55;;;;;;;1.48;1.08;;;17.00;57.50;;;;;;5093023;28;20156;-78
2023/02/28 04:59:21;;;;;;;1.08;0.98;;;16.90;57.10;;;;;;5095669;28;20493;-78
2023/02/28 05:01:47;;;;;;;1.40;1.30;;;16.90;57.30;;;;;;5096500;28;20150;-79
2023/02/28 05:04:13;;;;;;;1.38;1.27;;;16.90;57.40;;;;;;5090262;28;20036;-78
2023/02/28 05:06:38;;;;;;;1.33;1.23;;;16.90;57.50;;;;;;5091765;28;20401;-78
2023/02/28 05:09:04;;;;;;;1.33;1.23;;;16.90;57.40;;;;;;5090242;28;20089;-78
2023/02/28 05:11:34;;;;;;;1.15;1.05;;;16.90;57.30;;;;;;5098362;28;20899;-78
2023/02/28 05:14:03;;;;;;;1.40;1.30;;;16.90;57.30;;;;;;5095495;28;20396;-78
2023/02/28 05:16:29;;;;;;;0.90;0.90;;;16.90;57.50;;;;;;5091893;28;20047;-78
2023/02/28 05:18:55;;;;;;;2.05;0.95;;;16.90;57.50;;;;;;5090058;28;20119;-78
2023/02/28 05:21:29;;;;;;;1.17;1.08;;;16.90;57.70;;;;;;5088410;28;20523;-78
2023/02/28 05:23:56;;;;;;;1.08;0.95;;;16.90;57.30;;;;;;5092806;28;20043;-78
2023/02/28 05:26:22;;;;;;;0.82;0.82;;;16.90;57.50;;;;;;5084759;28;20051;-78
2023/02/28 05:28:47;;;;;;;1.30;1.20;;;16.80;57.40;;;;;;5092508;28;20487;-78
2023/02/28 05:31:13;;;;;;;0.90;0.90;;;16.80;57.40;;;;;;5084425;28;20052;-78
2023/02/28 05:33:39;;;;;;;1.10;1.10;;;16.90;57.60;;;;;;5076917;28;20055;-78
2023/02/28 05:36:05;;;;;;;1.30;1.30;;;16.90;57.30;;;;;;5074515;28;20048;-78
2023/02/28 05:38:31;;;;;;;1.17;1.08;;;16.90;57.50;;;;;;5072543;28;20059;-78
2023/02/28 05:40:57;;;;;;;1.10;1.05;;;16.80;57.30;;;;;;5073462;28;20048;-78
2023/02/28 05:43:23;;;;;;;0.75;0.75;;;16.80;57.30;;;;;;5071813;28;20492;-78
2023/02/28 05:45:48;;;;;;;1.00;1.00;;;16.80;57.40;;;;;;5072736;28;20046;-78
2023/02/28 05:48:14;;;;;;;1.00;1.00;;;16.80;57.40;;;;;;5071576;28;20047;-78
2023/02/28 05:50:40;;;;;;;1.00;1.00;;;16.90;57.40;;;;;;5072725;28;20079;-78
2023/02/28 05:53:06;;;;;;;0.77;0.77;;;16.80;57.60;;;;;;5073822;28;20044;-78
2023/02/28 05:55:31;;;;;;;1.10;1.05;;;16.80;57.40;;;;;;5086568;28;20046;-78
2023/02/28 05:57:57;;;;;;;0.70;0.70;;;16.80;57.50;;;;;;5074311;28;20086;-78
2023/02/28 06:00:23;;;;;;;1.15;1.15;;;16.70;57.50;;;;;;5071724;28;20052;-78
2023/02/28 06:02:49;;;;;;;1.08;1.00;;;16.70;57.30;;;;;;5071439;28;20136;-78
2023/02/28 06:05:16;;;;;;;1.25;1.15;;;16.80;57.40;;;;;;5051814;28;20048;-78
2023/02/28 06:07:42;;;;;;;0.70;0.70;;;16.80;57.50;;;;;;5074616;28;20539;-78
2023/02/28 06:10:09;;;;;;;0.85;0.73;;;16.80;57.30;;;;;;5071367;28;20052;-78
2023/02/28 06:12:34;;;;;;;0.70;0.70;;;16.80;57.40;;;;;;5073093;28;20052;-78
2023/02/28 06:15:00;;;;;;;1.17;1.15;;;16.80;57.20;;;;;;5073401;28;20052;-79
2023/02/28 06:17:25;;;;;;;0.95;0.95;;;16.80;57.40;;;;;;5057347;28;20585;-78
2023/02/28 06:19:51;;;;;;;1.05;1.05;;;16.80;57.50;;;;;;5075649;28;20140;-78
2023/02/28 06:22:16;;;;;;;1.23;1.20;;;16.70;57.30;;;;;;5072709;28;20048;-78
2023/02/28 06:24:42;;;;;;;0.70;0.70;;;16.80;57.10;;;;;;5074432;28;22817;-78
2023/02/28 06:27:08;;;;;;;0.77;0.77;;;16.70;57.50;;;;;;5072989;28;20052;-78
2023/02/28 06:29:34;;;;;;;0.77;0.77;;;16.70;57.40;;;;;;5073199;28;20044;-78
2023/02/28 06:31:59;;;;;;;1.10;1.10;;;16.80;57.50;;;;;;5073791;28;20527;-78
2023/02/28 06:34:25;;;;;;;0.90;0.90;;;16.70;57.30;;;;;;5074721;28;20109;-78
2023/02/28 06:36:51;;;;;;;0.88;0.88;;;16.70;57.30;;;;;;5073302;28;20048;-78
2023/02/28 06:39:16;;;;;;;0.90;0.90;;;16.80;57.20;;;;;;5071381;28;20044;-78
2023/02/28 06:41:45;;;;;;;0.82;0.82;;;16.80;57.60;;;;;;5056535;28;20127;-77
2023/02/28 06:44:12;;;;;;;1.15;0.98;;;16.80;57.40;;;;;;5071877;28;20032;-77
2023/02/28 06:46:42;;;;;;;0.95;0.95;;;16.80;57.60;;;;;;5041852;28;20074;-78
2023/02/28 06:49:11;;;;;;;1.10;1.08;;;16.80;56.60;;;;;;5071597;28;20515;-78
2023/02/28 06:51:38;;;;;;;1.08;0.98;;;16.80;57.20;;;;;;5070554;28;20181;-78
2023/02/28 06:54:04;;;;;;;1.05;1.05;;;16.90;57.00;;;;;;5071871;28;20050;-79
2023/02/28 06:56:29;;;;;;;1.30;1.20;;;16.80;57.40;;;;;;5083970;28;20036;-79
2023/02/28 06:58:55;;;;;;;1.23;1.13;;;16.80;57.80;;;;;;5090540;28;20044;-79
2023/02/28 07:01:23;;;;;;;1.92;1.55;;;16.80;57.20;;;;;;5069179;28;20050;-79
2023/02/28 07:03:51;;;;;;;1.00;1.00;;;16.80;57.30;;;;;;5066182;28;20500;-80
2023/02/28 07:06:22;;;;;;;1.08;1.08;;;16.80;56.60;;;;;;5060740;28;20568;-79
2023/02/28 07:08:48;;;;;;;1.00;0.90;;;16.80;56.90;;;;;;5091170;28;20131;-77
2023/02/28 07:11:14;;;;;;;1.17;1.08;;;16.70;57.60;;;;;;5072243;28;20273;-79
2023/02/28 07:13:39;;;;;;;1.30;1.20;;;16.80;57.70;;;;;;5068162;28;20052;-80
2023/02/28 07:16:06;;;;;;;1.17;1.15;;;16.70;57.90;;;;;;5064400;28;20417;-81
2023/02/28 07:18:32;;;;;;;0.80;0.80;;;16.80;57.70;;;;;;5066767;28;20039;-77
2023/02/28 07:20:57;;;;;;;4.03;1.80;;;16.80;57.90;;;;;;5089966;28;20416;-79
2023/02/28 07:23:23;;;;;;;1.70;1.60;;;16.90;57.20;;;;;;5088158;28;20048;-78
2023/02/28 07:25:50;;;;;;;1.92;1.00;;;16.90;57.70;;;;;;5084076;28;20573;-78
2023/02/28 07:28:15;;;;;;;2.05;1.38;;;16.90;58.10;;;;;;5092652;28;20085;-77
2023/02/28 07:30:41;;;;;;;1.30;1.20;;;16.90;57.70;;;;;;5092526;28;20044;-77
2023/02/28 07:33:07;;;;;;;1.58;1.48;;;16.90;57.30;;;;;;5092777;28;20452;-77
2023/02/28 07:35:32;;;;;;;2.92;1.58;;;16.80;57.30;;;;;;5091607;28;20040;-77
2023/02/28 07:37:58;;;;;;;3.92;1.65;;;16.80;57.20;;;;;;5094347;28;20419;-77
2023/02/28 07:40:24;;;;;;;1.98;1.63;;;16.80;57.10;;;;;;5093269;28;20508;-77
2023/02/28 07:42:49;;;;;;;2.13;1.45;;;16.90;56.90;;;;;;5090266;28;20069;-77
2023/02/28 07:45:15;;;;;;;1.80;1.50;;;16.80;57.00;;;;;;5088471;28;20501;-77
2023/02/28 07:47:41;;;;;;;4.25;2.00;;;16.90;56.80;;;;;;5091824;28;20042;-77
2023/02/28 07:50:08;;;;;;;1.50;1.33;;;16.80;56.90;;;;;;5074174;28;20094;-78
2023/02/28 07:52:34;;;;;;;1.42;1.33;;;16.80;56.80;;;;;;5073855;28;20577;-78
2023/02/28 07:54:59;;;;;;;1.60;1.48;;;16.90;57.00;;;;;;5094531;28;20070;-78
2023/02/28 07:57:25;;;;;;;1.38;1.27;;;16.80;57.10;;;;;;5093007;28;20131;-78
2023/02/28 07:59:51;;;;;;;2.72;1.58;;;16.90;56.60;;;;;;5094420;28;20147;-77
2023/02/28 08:02:17;;;;;;;1.35;1.25;;;16.80;57.00;;;;;;5093676;28;20417;-76
2023/02/28 08:04:43;;;;;;;1.80;1.70;;;16.80;57.10;;;;;;5078891;28;20042;-77
2023/02/28 08:07:12;;;;;;;1.30;1.20;;;16.90;57.40;;;;;;5094902;28;20048;-77
2023/02/28 08:09:39;;;;;;;1.98;1.30;;;16.90;57.70;;;;;;5090491;28;20032;-77
2023/02/28 08:12:05;;;;;;;1.60;1.17;;;16.70;58.40;;;;;;5093025;28;20381;-77
2023/02/28 08:14:31;;;;;;;1.77;1.67;;;16.70;57.60;;;;;;5092891;28;20063;-78
2023/02/28 08:16:56;;;;;;;1.30;1.20;;;16.70;58.50;;;;;;5094592;28;20048;-78
2023/02/28 08:19:22;;;;;;;2.67;1.42;;;16.80;58.50;;;;;;5095830;28;20113;-77
2023/02/28 08:21:48;;;;;;;1.50;1.30;;;16.70;58.40;;;;;;5089212;28;20111;-77
2023/02/28 08:24:13;;;;;;;2.50;1.02;;;16.70;58.30;;;;;;5093066;28;20124;-78
2023/02/28 08:26:39;;;;;;;1.40;1.10;;;16.60;58.50;;;;;;5076088;28;20040;-78
2023/02/28 08:29:04;;;;;;;2.40;1.40;;;16.70;58.60;;;;;;5098764;28;20055;-78
2023/02/28 08:31:30;;;;;;;1.17;1.10;;;16.70;58.50;;;;;;5097617;28;20423;-78
2023/02/28 08:33:58;;;;;;;1.38;1.35;;;16.70;58.30;;;;;;5092718;28;20105;-78
2023/02/28 08:36:24;;;;;;;1.60;1.10;;;16.70;58.50;;;;;;5091987;28;20040;-78
2023/02/28 08:38:49;;;;;;;2.03;1.30;;;16.70;58.40;;;;;;5076549;28;20205;-78
2023/02/28 08:41:15;;;;;;;1.10;1.00;;;16.70;58.40;;;;;;5096321;28;20110;-78
2023/02/28 08:43:41;;;;;;;1.10;0.98;;;16.60;58.40;;;;;;5090115;28;20047;-78
2023/02/28 08:46:06;;;;;;;1.48;1.10;;;16.60;58.40;;;;;;5075258;28;20032;-78
2023/02/28 08:48:33;;;;;;;1.08;0.98;;;16.60;58.40;;;;;;5080000;28;20062;-78
2023/02/28 08:51:07;;;;;;;1.08;1.08;;;16.60;58.70;;;;;;5074429;28;20399;-78
2023/02/28 08:53:32;;;;;;;0.90;0.90;;;16.60;58.60;;;;;;5090925;28;20063;-78
2023/02/28 08:56:03;;;;;;;1.15;1.02;;;16.60;58.60;;;;;;5094864;28;20047;-78
2023/02/28 08:58:29;;;;;;;1.20;1.10;;;16.60;58.40;;;;;;5092415;28;20139;-78
2023/02/28 09:00:55;;;;;;;2.38;1.23;;;16.60;58.70;;;;;;5093317;28;20118;-78
2023/02/28 09:03:21;;;;;;;1.05;0.80;;;16.60;58.80;;;;;;5087763;28;20393;-78
2023/02/28 09:05:57;;;;;;;0.73;0.63;;;16.60;58.90;;;;;;5085311;28;20055;-78
2023/02/28 09:08:23;;;;;;;1.05;0.85;;;16.70;58.80;;;;;;5071332;28;20065;-78
2023/02/28 09:10:49;;;;;;;0.80;0.80;;;16.70;58.70;;;;;;5093201;28;20536;-78
2023/02/28 09:13:15;;;;;;;1.48;1.08;;;16.70;58.70;;;;;;5087415;28;20035;-78
2023/02/28 09:15:40;;;;;;;0.80;0.80;;;16.70;58.50;;;;;;5093555;28;20048;-78
2023/02/28 09:18:06;;;;;;;0.60;0.60;;;16.70;58.60;;;;;;5092229;28;20476;-78
2023/02/28 09:20:31;;;;;;;0.80;0.80;;;16.70;58.50;;;;;;5093824;28;20085;-78
2023/02/28 09:22:57;;;;;;;1.10;1.00;;;16.80;58.50;;;;;;5095856;28;20501;-78
2023/02/28 09:25:22;;;;;;;1.48;0.98;;;16.90;58.20;;;;;;5091764;28;20035;-78
2023/02/28 09:27:48;;;;;;;1.27;0.70;;;16.90;58.20;;;;;;5091464;28;20462;-78
2023/02/28 09:30:14;;;;;;;0.95;0.90;;;17.00;58.00;;;;;;5095857;28;20131;-78
2023/02/28 09:32:40;;;;;;;0.50;0.50;;;17.00;57.90;;;;;;5088907;28;20037;-78
2023/02/28 09:35:06;;;;;;;0.85;0.85;;;17.00;57.90;;;;;;5095642;28;20094;-78
2023/02/28 09:37:31;;;;;;;0.70;0.70;;;17.10;57.70;;;;;;5095561;28;20040;-77
2023/02/28 09:39:57;;;;;;;0.88;0.88;;;17.10;57.20;;;;;;5087767;28;20456;-78
2023/02/28 09:42:32;;;;;;;0.88;0.52;;;17.20;57.10;;;;;;5094004;28;20427;-78
2023/02/28 09:45:00;;;;;;;1.05;0.68;;;17.20;57.10;;;;;;5059490;28;20044;-78
2023/02/28 09:47:33;;;;;;;0.55;0.55;;;17.10;57.30;;;;;;5076866;28;20040;-78
2023/02/28 09:50:26;;;;;;;0.82;0.75;;;17.10;57.40;;;;;;5080333;28;20051;-77
2023/02/28 09:52:51;;;;;;;0.65;0.65;;;17.10;57.60;;;;;;5092068;28;20036;-78
2023/02/28 09:55:28;;;;;;;0.80;0.80;;;17.20;57.90;;;;;;5074828;28;20532;-77
2023/02/28 09:57:54;;;;;;;0.63;0.63;;;17.20;58.10;;;;;;5072164;28;20029;-77
2023/02/28 10:00:20;;;;;;;0.50;0.50;;;17.20;58.30;;;;;;5072609;28;20047;-77
2023/02/28 10:03:06;;;;;;;0.55;0.55;;;17.20;58.40;;;;;;5093028;28;20034;-77
2023/02/28 10:05:40;;;;;;;0.65;0.63;;;17.20;58.30;;;;;;5071565;28;20043;-77
2023/02/28 10:08:18;;;;;;;1.17;1.08;;;17.20;58.00;;;;;;5079238;28;20047;-77
2023/02/28 10:10:45;;;;;;;0.60;0.60;;;17.30;57.90;;;;;;5077323;28;20039;-77
2023/02/28 10:13:27;;;;;;;0.70;0.70;;;17.30;57.90;;;;;;5077430;28;20511;-78
2023/02/28 10:15:59;;;;;;;0.70;0.70;;;17.30;57.80;;;;;;5069432;28;20047;-77
2023/02/28 10:18:27;;;;;;;0.57;0.57;;;17.40;57.90;;;;;;5066232;28;20082;-77
2023/02/28 10:20:52;;;;;;;0.90;0.65;;;17.40;57.90;;;;;;5056963;28;20048;-77
2023/02/28 10:23:23;;;;;;;0.70;0.70;;;17.40;57.90;;;;;;5077797;28;20048;-77
2023/02/28 10:26:21;;;;;;;0.70;0.70;;;17.40;57.60;;;;;;5093481;28;20066;-78
2023/02/28 10:28:46;;;;;;;0.50;0.50;;;17.40;57.80;;;;;;5051625;28;20050;-78
2023/02/28 10:31:16;;;;;;;0.80;0.80;;;17.40;57.70;;;;;;5087603;28;20043;-78
2023/02/28 10:33:42;;;;;;;0.70;0.70;;;17.40;57.80;;;;;;5078876;28;20054;-78
2023/02/28 10:36:10;;;;;;;2.63;0.95;;;17.40;57.80;;;;;;5090829;28;20040;-78
2023/02/28 10:38:37;;;;;;;0.60;0.60;;;17.40;57.60;;;;;;5054514;28;20476;-77
2023/02/28 10:41:10;;;;;;;0.50;0.50;;;17.40;57.60;;;;;;5092294;28;20079;-78
2023/02/28 10:43:36;;;;;;;0.60;0.50;;;17.50;57.70;;;;;;5092755;28;20070;-78
2023/02/28 10:46:09;;;;;;;0.80;0.80;;;17.50;57.70;;;;;;5090843;28;20040;-78
2023/02/28 10:48:47;;;;;;;0.45;0.45;;;17.50;57.60;;;;;;5092304;28;20055;-78
2023/02/28 10:51:14;;;;;;;0.60;0.60;;;17.50;57.60;;;;;;5071039;28;20521;-78
2023/02/28 10:53:40;;;;;;;0.60;0.60;;;17.50;57.60;;;;;;5070593;28;20047;-78
2023/02/28 10:56:09;;;;;;;0.70;0.60;;;17.50;57.60;;;;;;5076342;28;20047;-77
2023/02/28 10:58:57;;;;;;;0.68;0.47;;;17.50;57.60;;;;;;5091243;28;20043;-77
2023/02/28 11:01:40;;;;;;;0.57;0.57;;;17.50;57.50;;;;;;5073315;28;20052;-77
2023/02/28 11:04:41;;;;;;;0.40;0.40;;;17.50;57.60;;;;;;5081820;28;20178;-78
2023/02/28 11:07:20;;;;;;;0.60;0.40;;;17.50;57.50;;;;;;5008745;28;20064;-77
2023/02/28 11:09:52;;;;;;;0.55;0.55;;;17.50;57.70;;;;;;4994507;28;20538;-77
2023/02/28 11:12:22;;;;;;;0.60;0.60;;;17.50;57.50;;;;;;4994850;28;20037;-77
2023/02/28 11:14:50;;;;;;;3.85;0.40;;;17.60;57.80;;;;;;4999186;28;20045;-77
2023/02/28 11:17:24;;;;;;;0.50;0.50;;;17.60;57.90;;;;;;5014464;28;20081;-77
2023/02/28 11:20:02;;;;;;;0.68;0.60;;;17.60;57.40;;;;;;4998179;28;20120;-77
2023/02/28 11:22:29;;;;;;;0.38;0.38;;;17.60;57.10;;;;;;4995008;28;20052;-77
2023/02/28 11:25:00;;;;;;;0.60;0.57;;;17.60;57.40;;;;;;4998827;28;20100;-77
2023/02/28 11:27:42;;;;;;;0.70;0.70;;;17.60;57.30;;;;;;4992678;28;20061;-77
2023/02/28 11:30:22;;;;;;;0.60;0.60;;;17.60;57.30;;;;;;5007802;28;20130;-77
2023/02/28 11:32:48;;;;;;;0.40;0.40;;;17.60;57.20;;;;;;5007890;28;20057;-77
2023/02/28 11:35:30;;;;;;;0.68;0.50;;;17.70;57.30;;;;;;5012533;28;20073;-77
2023/02/28 11:37:55;;;;;;;0.40;0.40;;;17.60;57.30;;;;;;5012810;28;20533;-77
2023/02/28 11:40:36;;;;;;;0.40;0.40;;;17.60;57.30;;;;;;5005065;28;20036;-77
2023/02/28 11:43:05;;;;;;;0.40;0.40;;;17.70;57.00;;;;;;5074444;28;20040;-77
2023/02/28 11:45:40;;;;;;;0.47;0.47;;;17.70;57.00;;;;;;5072581;28;20044;-77
2023/02/28 11:48:17;;;;;;;0.60;0.60;;;17.70;57.10;;;;;;5094348;28;20029;-77
2023/02/28 11:51:07;;;;;;;1.15;0.50;;;17.70;57.00;;;;;;5092130;28;20044;-77
2023/02/28 11:53:48;;;;;;;0.40;0.40;;;17.70;57.10;;;;;;5088568;28;20040;-77
2023/02/28 11:56:22;;;;;;;0.60;0.60;;;17.70;57.00;;;;;;5089187;28;20042;-76
2023/02/28 11:59:05;;;;;;;0.40;0.40;;;17.70;57.20;;;;;;5089066;28;20039;-77
2023/02/28 12:02:08;;;;;;;0.50;0.50;;;17.70;57.10;;;;;;5075596;28;20122;-77
2023/02/28 12:04:40;;;;;;;0.32;0.32;;;17.70;57.00;;;;;;5087661;28;20524;-77
2023/02/28 12:07:30;;;;;;;0.43;0.43;;;17.70;57.00;;;;;;5091148;28;20509;-77
2023/02/28 12:10:04;;;;;;;0.30;0.30;;;17.70;57.10;;;;;;5094078;28;20110;-77
2023/02/28 12:12:44;;;;;;;1.58;0.65;;;17.70;57.10;;;;;;5090691;28;20571;-77
2023/02/28 12:15:13;;;;;;;0.40;0.40;;;17.70;57.10;;;;;;5095544;28;20043;-77
2023/02/28 12:18:16;;;;;;;0.50;0.50;;;17.70;56.90;;;;;;5087889;28;20543;-77
2023/02/28 12:21:05;;;;;;;0.40;0.40;;;17.70;56.90;;;;;;5094208;28;20187;-77
2023/02/28 12:23:45;;;;;;;0.43;0.43;;;17.60;57.50;;;;;;5070917;28;20056;-77
2023/02/28 12:26:30;;;;;;;0.30;0.30;;;17.60;57.90;;;;;;5090875;28;20047;-77
2023/02/28 12:29:20;;;;;;;1.10;0.30;;;17.70;58.00;;;;;;5086684;28;20039;-77
2023/02/28 12:35:10;;;;;;;0.65;0.40;;;17.70;57.30;;;;;;5082691;28;20016;-78
2023/02/28 12:37:38;;;;;;;0.43;0.43;;;17.70;57.90;;;;;;5092482;28;20030;-78
2023/02/28 12:43:32;;;;;;;1.83;0.50;;;17.70;58.00;;;;;;5088723;28;20066;-85
2023/02/28 12:46:32;;;;;;;0.32;0.32;;;17.70;58.00;;;;;;5077438;28;20031;-79
2023/02/28 12:48:58;;;;;;;0.30;0.30;;;17.70;57.70;;;;;;5062668;28;20036;-78
2023/02/28 12:51:24;;;;;;;0.30;0.30;;;17.70;57.90;;;;;;5074331;28;20055;-78
2023/02/28 12:54:09;;;;;;;0.40;0.40;;;17.70;58.00;;;;;;5058754;28;20044;-79
2023/02/28 12:59:59;;;;;;;0.50;0.50;;;17.90;57.60;;;;;;5091417;28;20031;-78
2023/02/28 13:02:33;;;;;;;0.38;0.38;;;17.90;57.50;;;;;;5076973;28;20496;-78
2023/02/28 13:05:37;;;;;;;0.38;0.30;;;17.80;57.50;;;;;;5097057;28;20035;-78
2023/02/28 13:08:24;;;;;;;0.60;0.30;;;17.90;57.50;;;;;;5093513;28;20458;-78
2023/02/28 13:10:54;;;;;;;0.40;0.40;;;17.90;57.40;;;;;;5092596;28;20049;-78
2023/02/28 13:13:21;;;;;;;0.40;0.40;;;17.90;57.40;;;;;;5093841;28;20053;-78
2023/02/28 13:16:09;;;;;;;0.57;0.40;;;17.90;57.50;;;;;;5093253;28;20048;-78
2023/02/28 13:18:39;;;;;;;0.50;0.50;;;17.90;57.40;;;;;;5076236;28;20040;-78